Time;durP1;ratioP1;P1;durP2;ratioP2;P2;SDS_P1;SDS_P2;PMS_P1;PMS_P2;Temp;Humidity;BMP_temperature;BMP_pressure;BME280_temperature;BME280_humidity;BME280_pressure;Samples;Min_cycle;Max_cycle;Signal;HPM_P1;HPM_P2
2022/06/07 00:00:22;;;;;;;0.50;0.50;;;14.40;99.90;13.90;101208.00;;;;5034602;28;20185;-73
2022/06/07 00:02:52;;;;;;;0.90;0.73;;;14.20;99.90;13.60;101201.00;;;;5033997;28;20208;-73
2022/06/07 00:05:18;;;;;;;0.40;0.40;;;14.00;99.90;13.60;101203.00;;;;5034520;28;20180;-73
2022/06/07 00:07:48;;;;;;;0.90;0.90;;;13.90;99.90;13.40;101195.00;;;;5034611;28;20197;-73
2022/06/07 00:10:34;;;;;;;1.73;1.63;;;13.70;99.90;13.50;101208.00;;;;5034661;28;20282;-73
2022/06/07 00:13:19;;;;;;;0.70;0.70;;;13.80;99.90;13.00;101205.00;;;;5050634;28;20247;-73
2022/06/07 00:15:47;;;;;;;0.80;0.80;;;13.60;99.90;13.10;101209.00;;;;5034049;28;20197;-72
2022/06/07 00:18:14;;;;;;;1.53;1.43;;;13.50;99.90;13.20;101215.00;;;;5050632;28;20178;-73
2022/06/07 00:20:42;;;;;;;1.23;1.17;;;13.50;99.90;12.90;101217.00;;;;5050974;28;20263;-73
2022/06/07 00:23:18;;;;;;;0.40;0.40;;;13.40;99.90;13.30;101212.00;;;;5034381;28;20222;-72
2022/06/07 00:25:50;;;;;;;0.30;0.30;;;13.50;99.90;13.30;101154.00;;;;5034430;28;20203;-73
2022/06/07 00:28:16;;;;;;;1.27;1.17;;;13.50;99.90;13.10;101125.00;;;;5034144;28;20206;-72
2022/06/07 00:30:45;;;;;;;1.90;0.83;;;13.50;99.90;12.90;101200.00;;;;5035297;28;20284;-71
2022/06/07 00:33:15;;;;;;;0.77;0.77;;;13.40;99.90;13.30;101200.00;;;;5033899;28;20242;-70
2022/06/07 00:35:41;;;;;;;0.37;0.37;;;13.40;99.90;13.40;101199.00;;;;5034500;28;20235;-71
2022/06/07 00:38:11;;;;;;;0.60;0.60;;;13.50;99.90;13.80;101179.00;;;;5050568;28;20193;-71
2022/06/07 00:40:37;;;;;;;0.60;0.60;;;13.80;99.90;13.70;101177.00;;;;5050815;28;20275;-70
2022/06/07 00:43:04;;;;;;;0.40;0.40;;;13.90;99.90;13.50;101185.00;;;;5033644;28;20181;-70
2022/06/07 00:45:30;;;;;;;0.40;0.40;;;13.80;99.90;13.40;101181.00;;;;5034054;28;20193;-71
2022/06/07 00:48:02;;;;;;;0.40;0.40;;;13.70;99.90;13.80;101172.00;;;;5034596;28;20211;-71
2022/06/07 00:51:03;;;;;;;0.30;0.30;;;13.80;99.90;14.10;101170.00;;;;5033953;28;20178;-71
2022/06/07 00:53:34;;;;;;;0.40;0.40;;;13.90;99.90;13.60;101165.00;;;;5033469;28;20183;-71
2022/06/07 00:56:05;;;;;;;1.07;1.07;;;14.00;99.90;13.60;101158.00;;;;5032713;28;20223;-70
2022/06/07 00:58:36;;;;;;;0.40;0.40;;;13.80;99.90;13.70;101141.00;;;;5033661;28;20280;-71
2022/06/07 01:01:07;;;;;;;0.30;0.30;;;13.80;99.90;13.30;101078.00;;;;5034610;28;20185;-72
2022/06/07 01:03:33;;;;;;;0.50;0.50;;;13.80;99.90;13.10;101162.00;;;;5033512;28;20180;-72
2022/06/07 01:10:43;;;;;;;0.40;0.40;;;13.50;99.90;13.20;101156.00;;;;5034647;28;20629;-73
2022/06/07 01:11:32;;;;;;;0.40;0.40;;;13.70;99.90;13.90;101101.00;;;;5034783;28;20281;-73
2022/06/07 01:14:01;;;;;;;0.50;0.50;;;14.00;99.90;13.70;101141.00;;;;5033601;28;20216;-73
2022/06/07 01:16:30;;;;;;;0.40;0.40;;;13.90;99.90;13.20;101130.00;;;;5033406;28;20207;-73
2022/06/07 01:19:01;;;;;;;0.40;0.40;;;13.70;99.90;13.30;101080.00;;;;5049839;28;20198;-73
2022/06/07 01:21:36;;;;;;;0.40;0.40;;;13.60;99.90;13.40;101143.00;;;;5033100;28;20195;-73
2022/06/07 01:24:02;;;;;;;0.40;0.40;;;13.60;99.90;13.30;101153.00;;;;5032930;28;20172;-72
2022/06/07 01:26:39;;;;;;;0.30;0.30;;;13.60;99.90;13.40;101140.00;;;;5033189;28;20177;-73
2022/06/07 01:29:08;;;;;;;0.40;0.40;;;13.60;99.90;13.70;101140.00;;;;5034376;28;20160;-73
2022/06/07 01:31:37;;;;;;;0.40;0.40;;;13.60;99.90;13.80;101129.00;;;;5032164;28;20224;-73
2022/06/07 01:34:03;;;;;;;0.47;0.47;;;13.70;99.90;13.50;101155.00;;;;5032719;28;20177;-73
2022/06/07 01:36:34;;;;;;;0.40;0.40;;;13.70;99.90;13.50;101150.00;;;;5033114;28;20171;-73
2022/06/07 01:41:54;;;;;;;0.40;0.40;;;13.70;99.90;13.70;101147.00;;;;5033969;28;20544;-72
2022/06/07 01:44:42;;;;;;;0.50;0.50;;;13.70;99.90;13.70;101138.00;;;;5033560;28;20254;-72
2022/06/07 01:47:12;;;;;;;0.43;0.43;;;13.80;99.90;14.10;101128.00;;;;5032955;28;20172;-72
2022/06/07 01:49:54;;;;;;;0.40;0.40;;;13.90;99.90;14.00;101116.00;;;;5032509;28;20585;-71
2022/06/07 01:52:32;;;;;;;0.40;0.40;;;14.00;99.90;13.60;101129.00;;;;5032852;28;20204;-71
2022/06/07 01:55:01;;;;;;;0.40;0.40;;;13.90;99.90;13.30;101126.00;;;;5032628;28;20169;-71
2022/06/07 01:57:31;;;;;;;0.40;0.40;;;13.60;99.90;13.30;101124.00;;;;5032797;28;20165;-71
2022/06/07 01:59:58;;;;;;;0.60;0.60;;;13.50;99.90;13.80;101110.00;;;;5032578;28;20164;-71
2022/06/07 02:02:34;;;;;;;0.57;0.57;;;13.60;99.90;13.10;101112.00;;;;5032837;28;20199;-72
2022/06/07 02:05:11;;;;;;;0.83;0.80;;;13.40;99.90;13.30;101122.00;;;;5033775;28;20227;-72
2022/06/07 02:07:42;;;;;;;0.40;0.40;;;13.40;99.90;13.40;101129.00;;;;5032371;28;20169;-72
2022/06/07 02:10:18;;;;;;;0.40;0.40;;;13.40;99.90;12.90;101131.00;;;;5032147;28;20222;-73
2022/06/07 02:12:47;;;;;;;0.40;0.40;;;13.30;99.90;13.20;101130.00;;;;5033397;28;20214;-72
2022/06/07 02:15:18;;;;;;;0.50;0.50;;;13.30;99.90;13.00;101128.00;;;;5032008;28;20176;-72
2022/06/07 02:17:44;;;;;;;0.40;0.40;;;13.30;99.90;13.40;101122.00;;;;5032501;28;20196;-72
2022/06/07 02:20:10;;;;;;;0.40;0.40;;;13.30;99.90;12.80;101115.00;;;;5031921;28;20524;-72
2022/06/07 02:22:37;;;;;;;0.40;0.40;;;13.20;99.90;13.30;101126.00;;;;5032070;28;20280;-72
2022/06/07 02:25:06;;;;;;;0.40;0.40;;;13.30;99.90;13.00;101111.00;;;;5033332;28;20188;-72
2022/06/07 02:27:32;;;;;;;1.40;1.30;;;13.30;99.90;13.10;101116.00;;;;5032191;28;20270;-72
2022/06/07 02:29:59;;;;;;;0.40;0.40;;;13.20;99.90;12.80;101123.00;;;;5032169;28;20235;-72
2022/06/07 02:32:35;;;;;;;0.40;0.40;;;13.10;99.90;12.90;101133.00;;;;5032292;28;20254;-71
2022/06/07 02:35:03;;;;;;;0.40;0.40;;;13.10;99.90;12.20;101140.00;;;;5031911;28;20179;-71
2022/06/07 02:37:31;;;;;;;0.57;0.57;;;12.80;99.90;12.50;101133.00;;;;5032303;28;20196;-72
2022/06/07 02:40:06;;;;;;;4.33;1.47;;;12.80;99.90;12.80;101123.00;;;;5032018;28;20227;-71
2022/06/07 02:42:43;;;;;;;0.30;0.30;;;13.00;99.90;12.70;101129.00;;;;5031838;28;20698;-71
2022/06/07 02:45:11;;;;;;;0.40;0.40;;;12.90;99.90;12.70;101140.00;;;;5033198;28;20252;-71
2022/06/07 02:47:47;;;;;;;0.40;0.40;;;12.90;99.90;13.10;101123.00;;;;5032567;28;20213;-71
2022/06/07 02:50:18;;;;;;;0.70;0.70;;;13.10;99.90;13.40;101110.00;;;;5034737;28;20187;-70
2022/06/07 02:52:47;;;;;;;0.40;0.40;;;13.30;99.90;12.60;101119.00;;;;5032114;28;20202;-70
2022/06/07 02:55:22;;;;;;;0.40;0.40;;;13.10;99.90;12.70;101127.00;;;;5032403;28;20167;-70
2022/06/07 02:57:54;;;;;;;0.40;0.40;;;13.00;99.90;13.20;101082.00;;;;5032191;28;20538;-70
2022/06/07 03:00:21;;;;;;;1.00;1.00;;;13.20;99.90;12.70;101033.00;;;;5032193;28;20693;-70
2022/06/07 03:02:55;;;;;;;0.70;0.70;;;13.10;99.90;13.00;101116.00;;;;5032636;28;20275;-70
2022/06/07 03:05:21;;;;;;;0.60;0.60;;;13.10;99.90;13.10;101110.00;;;;5031812;28;20172;-71
2022/06/07 03:07:51;;;;;;;0.40;0.40;;;13.20;99.90;13.20;101127.00;;;;5032604;28;20635;-70
2022/06/07 03:10:20;;;;;;;0.40;0.40;;;13.20;99.90;13.20;101118.00;;;;5031766;28;20252;-72
2022/06/07 03:12:50;;;;;;;0.90;0.90;;;13.30;99.90;13.30;101117.00;;;;5031738;28;20279;-72
2022/06/07 03:15:18;;;;;;;0.40;0.40;;;13.20;99.90;13.10;101121.00;;;;5032065;28;20166;-72
2022/06/07 03:17:53;;;;;;;0.40;0.40;;;13.20;99.90;12.60;101115.00;;;;5031740;28;20194;-72
2022/06/07 03:20:49;;;;;;;0.93;0.60;;;13.00;99.90;12.60;101140.00;;;;5035238;28;20167;-73
2022/06/07 03:23:35;;;;;;;0.57;0.57;;;12.90;99.90;12.80;101119.00;;;;5038590;28;20653;-73
2022/06/07 03:26:08;;;;;;;0.40;0.40;;;12.90;99.90;12.90;101151.00;;;;5034905;28;20253;-72
2022/06/07 03:28:35;;;;;;;0.40;0.40;;;13.00;99.90;12.60;101142.00;;;;5035333;28;20195;-72
2022/06/07 03:31:16;;;;;;;0.70;0.70;;;12.90;99.90;12.30;101137.00;;;;5035008;28;20179;-73
2022/06/07 03:33:53;;;;;;;0.40;0.40;;;12.80;99.90;12.10;101142.00;;;;5018997;28;20219;-73
2022/06/07 03:36:29;;;;;;;0.40;0.40;;;12.60;99.90;12.20;101060.00;;;;5030650;28;20167;-73
2022/06/07 03:39:00;;;;;;;0.63;0.60;;;12.50;99.90;12.30;101149.00;;;;5015444;28;20649;-73
2022/06/07 03:41:31;;;;;;;1.07;1.07;;;12.60;99.90;12.00;101134.00;;;;5014849;28;20551;-72
2022/06/07 03:44:00;;;;;;;0.40;0.40;;;12.50;99.90;11.90;101145.00;;;;5031893;28;20277;-72
2022/06/07 03:46:34;;;;;;;0.30;0.30;;;12.40;99.90;11.70;101151.00;;;;5014947;28;20203;-72
2022/06/07 03:49:11;;;;;;;0.40;0.40;;;12.30;99.90;11.90;101142.00;;;;5015368;28;20230;-73
2022/06/07 03:51:41;;;;;;;0.40;0.40;;;12.20;99.90;12.30;101156.00;;;;5030894;28;20202;-73
2022/06/07 03:54:08;;;;;;;0.40;0.40;;;12.40;99.90;12.90;101160.00;;;;5031081;28;20243;-73
2022/06/07 03:56:57;;;;;;;0.40;0.40;;;12.60;99.90;13.00;101132.00;;;;5031308;28;20184;-73
2022/06/07 03:59:29;;;;;;;1.33;1.23;;;12.90;99.90;13.30;101153.00;;;;5014840;28;20984;-73
2022/06/07 04:01:58;;;;;;;0.40;0.40;;;13.00;99.90;13.00;101155.00;;;;5031325;28;20191;-73
2022/06/07 04:04:30;;;;;;;0.40;0.40;;;13.00;99.90;12.90;101145.00;;;;5014845;28;20192;-72
2022/06/07 04:09:50;;;;;;;0.83;0.83;;;12.90;99.90;12.70;101159.00;;;;5028739;28;20218;-73
2022/06/07 04:12:18;;;;;;;0.40;0.40;;;12.90;99.90;12.60;101147.00;;;;5014604;28;20201;-73
2022/06/07 04:14:48;;;;;;;0.33;0.33;;;12.90;99.90;12.40;101133.00;;;;5015209;28;20555;-73
2022/06/07 04:17:15;;;;;;;0.40;0.40;;;12.80;99.90;12.50;101141.00;;;;5030521;28;20188;-73
2022/06/07 04:20:01;;;;;;;0.43;0.43;;;12.80;99.90;12.40;101136.00;;;;5031080;28;20192;-73
2022/06/07 04:22:35;;;;;;;0.30;0.30;;;12.70;99.90;12.40;101140.00;;;;5015758;28;20283;-73
2022/06/07 04:25:07;;;;;;;0.33;0.33;;;12.60;99.90;13.00;101149.00;;;;5014339;28;20284;-73
2022/06/07 04:27:36;;;;;;;0.30;0.30;;;12.80;99.90;13.50;101154.00;;;;5014191;28;20181;-73
2022/06/07 04:30:06;;;;;;;0.30;0.30;;;13.30;99.90;13.10;101155.00;;;;5031020;28;20256;-73
2022/06/07 04:32:39;;;;;;;0.30;0.30;;;13.40;99.90;12.10;101148.00;;;;5014246;28;20623;-73
2022/06/07 04:35:18;;;;;;;0.30;0.30;;;13.00;99.90;12.90;101146.00;;;;5016129;28;20166;-73
2022/06/07 04:37:53;;;;;;;0.30;0.30;;;13.00;99.90;13.30;101156.00;;;;5030583;28;20179;-74
2022/06/07 04:40:28;;;;;;;0.33;0.33;;;13.10;99.90;13.70;101137.00;;;;5013919;28;20189;-74
2022/06/07 04:43:00;;;;;;;0.40;0.40;;;13.40;99.90;13.10;101147.00;;;;5014009;28;20185;-73
2022/06/07 04:48:21;;;;;;;0.30;0.30;;;13.30;99.90;13.50;101144.00;;;;5024586;28;20258;-73
2022/06/07 04:51:08;;;;;;;0.30;0.30;;;13.50;99.90;13.40;101066.00;;;;5030402;28;20225;-73
2022/06/07 04:53:55;;;;;;;0.30;0.30;;;13.50;99.90;14.40;101042.00;;;;5013501;28;20604;-74
2022/06/07 04:56:53;;;;;;;0.30;0.30;;;13.90;99.90;13.60;101124.00;;;;5027379;28;20213;-73
2022/06/07 04:59:19;;;;;;;0.30;0.30;;;13.80;99.90;13.10;101109.00;;;;5029787;28;20208;-73
2022/06/07 05:01:56;;;;;;;0.50;0.50;;;13.60;99.90;13.70;101139.00;;;;5030488;28;20201;-73
2022/06/07 05:04:25;;;;;;;0.50;0.50;;;13.80;99.90;14.20;101149.00;;;;5015003;28;20193;-73
2022/06/07 05:06:56;;;;;;;0.20;0.20;;;14.10;99.90;13.50;101128.00;;;;5015315;28;20195;-73
2022/06/07 05:09:29;;;;;;;0.30;0.30;;;14.00;99.90;13.40;101123.00;;;;5029835;28;20168;-73
2022/06/07 05:12:03;;;;;;;0.30;0.30;;;13.80;99.90;14.30;101137.00;;;;5013485;28;20210;-73
2022/06/07 05:14:32;;;;;;;0.80;0.60;;;14.10;99.90;13.70;101138.00;;;;5029798;28;20179;-73
2022/06/07 05:17:14;;;;;;;0.30;0.30;;;14.10;99.90;13.90;101139.00;;;;5029711;28;20183;-73
2022/06/07 05:19:40;;;;;;;0.30;0.30;;;14.00;99.90;14.00;101133.00;;;;5028691;28;20182;-72
2022/06/07 05:22:17;;;;;;;0.40;0.40;;;14.20;99.90;13.90;101134.00;;;;5013487;28;20219;-73
2022/06/07 05:24:44;;;;;;;0.30;0.30;;;14.30;99.90;13.60;101117.00;;;;5029562;28;20282;-73
2022/06/07 05:27:22;;;;;;;0.60;0.60;;;14.10;99.90;14.40;101147.00;;;;5029911;28;20246;-72
2022/06/07 05:30:03;;;;;;;0.30;0.30;;;14.40;99.90;14.90;101148.00;;;;5013621;28;20223;-73
2022/06/07 05:32:35;;;;;;;0.20;0.20;;;14.70;99.90;15.20;101129.00;;;;5028899;28;20732;-73
2022/06/07 05:35:18;;;;;;;0.60;0.60;;;15.10;99.90;15.70;101136.00;;;;5013083;28;20217;-72
2022/06/07 05:37:53;;;;;;;0.20;0.20;;;15.70;99.90;17.10;101129.00;;;;5013032;28;20214;-73
2022/06/07 05:40:21;;;;;;;0.20;0.20;;;16.70;99.90;17.10;101118.00;;;;5012547;28;20245;-73
2022/06/07 05:42:52;;;;;;;0.20;0.20;;;17.00;99.90;18.20;101104.00;;;;5013863;28;20630;-73
2022/06/07 05:45:21;;;;;;;0.20;0.20;;;17.60;99.90;16.80;101113.00;;;;5012826;28;20231;-73
2022/06/07 05:48:11;;;;;;;0.13;0.13;;;17.40;99.90;16.00;101082.00;;;;5012921;28;20244;-73
2022/06/07 05:50:37;;;;;;;0.57;0.57;;;16.70;99.90;16.20;101118.00;;;;5012864;28;20272;-73
2022/06/07 05:53:06;;;;;;;0.20;0.20;;;16.60;99.90;17.30;101104.00;;;;5012571;28;20320;-73
2022/06/07 05:55:47;;;;;;;0.10;0.10;;;17.20;99.90;16.50;101128.00;;;;5013912;28;20206;-73
2022/06/07 05:58:16;;;;;;;0.50;0.50;;;17.30;99.90;16.30;101125.00;;;;5029009;28;20178;-73
2022/06/07 06:00:47;;;;;;;1.40;1.30;;;16.90;99.90;16.10;101116.00;;;;5012946;28;20186;-73
2022/06/07 06:03:15;;;;;;;1.00;0.97;;;16.80;99.90;17.20;101125.00;;;;5012567;28;20217;-73
2022/06/07 06:05:47;;;;;;;0.20;0.20;;;17.40;99.90;17.50;101128.00;;;;5028669;28;20652;-72
2022/06/07 06:11:16;;;;;;;0.40;0.40;;;17.80;99.90;17.30;101127.00;;;;5013622;28;20236;-72
2022/06/07 06:14:00;;;;;;;0.20;0.20;;;17.90;99.90;17.10;101110.00;;;;5012483;28;20190;-72
2022/06/07 06:16:38;;;;;;;0.80;0.73;;;17.50;99.90;16.00;101040.00;;;;5029039;28;20216;-72
2022/06/07 06:19:08;;;;;;;0.60;0.60;;;17.10;99.90;15.50;101123.00;;;;5029087;28;20166;-72
2022/06/07 06:21:38;;;;;;;0.10;0.10;;;16.40;99.90;16.60;101139.00;;;;5028245;28;20190;-75
2022/06/07 06:24:15;;;;;;;0.20;0.20;;;16.70;99.90;16.00;101125.00;;;;5012406;28;20188;-72
2022/06/07 06:26:54;;;;;;;4.13;0.93;;;16.40;99.90;16.50;101125.00;;;;5012662;28;20210;-72
2022/06/07 06:29:24;;;;;;;0.27;0.27;;;16.60;99.90;15.80;101130.00;;;;5028435;28;20167;-73
2022/06/07 06:31:53;;;;;;;0.20;0.20;;;16.30;99.90;16.40;101135.00;;;;5012347;28;20253;-73
2022/06/07 06:34:45;;;;;;;0.80;0.43;;;16.50;99.90;15.90;101109.00;;;;5011924;28;20670;-72
2022/06/07 06:37:11;;;;;;;3.30;1.50;;;16.40;99.90;16.60;101036.00;;;;5013510;28;20202;-73
2022/06/07 06:39:42;;;;;;;0.40;0.40;;;16.90;99.90;15.80;101133.00;;;;5012545;28;20531;-73
2022/06/07 06:42:13;;;;;;;3.70;2.43;;;16.60;99.90;16.00;101129.00;;;;5019707;28;20198;-72
2022/06/07 06:44:58;;;;;;;0.70;0.57;;;16.60;99.90;15.80;101130.00;;;;5036807;28;20196;-72
2022/06/07 06:47:44;;;;;;;0.30;0.30;;;16.60;99.90;15.70;101121.00;;;;5032375;28;20191;-72
2022/06/07 06:50:30;;;;;;;1.50;1.17;;;16.50;99.90;16.00;101142.00;;;;5048174;28;20631;-72
2022/06/07 06:53:19;;;;;;;0.27;0.27;;;16.50;99.90;16.60;101133.00;;;;5047708;28;20191;-73
2022/06/07 06:56:03;;;;;;;1.00;1.00;;;16.70;99.90;17.10;101122.00;;;;5049662;28;20178;-72
2022/06/07 06:58:52;;;;;;;0.10;0.10;;;17.20;99.90;16.80;101124.00;;;;5037276;28;20178;-73
2022/06/07 07:01:59;;;;;;;2.07;1.67;;;17.10;99.90;16.30;101119.00;;;;5052063;28;20187;-72
2022/06/07 07:04:30;;;;;;;0.30;0.30;;;17.10;99.90;17.70;101139.00;;;;5051660;28;20204;-72
2022/06/07 07:07:31;;;;;;;0.10;0.10;;;17.60;99.90;18.60;101152.00;;;;5035671;28;20195;-72
2022/06/07 07:10:35;;;;;;;0.93;0.52;;;18.10;99.90;18.00;101145.00;;;;5035725;28;20658;-72
2022/06/07 07:13:24;;;;;;;0.30;0.30;;;18.50;99.90;17.10;101080.00;;;;5019144;28;20205;-72
2022/06/07 07:16:11;;;;;;;0.50;0.50;;;18.10;99.90;19.10;101148.00;;;;5035538;28;20182;-72
2022/06/07 07:19:10;;;;;;;1.73;1.30;;;18.60;99.90;18.30;101153.00;;;;5051569;28;20189;-72
2022/06/07 07:21:58;;;;;;;0.10;0.10;;;18.80;99.90;18.70;101157.00;;;;5035247;28;20283;-72
2022/06/07 07:24:50;;;;;;;0.93;0.93;;;18.70;99.90;17.20;101095.00;;;;5035686;28;20190;-74
2022/06/07 07:27:42;;;;;;;0.10;0.10;;;18.10;99.90;17.20;101133.00;;;;5037735;28;20185;-74
2022/06/07 07:30:29;;;;;;;0.43;0.30;;;17.90;99.90;17.30;101138.00;;;;5035036;28;20190;-74
2022/06/07 07:33:13;;;;;;;0.30;0.30;;;17.70;99.90;16.60;101131.00;;;;5036663;28;20238;-71
2022/06/07 07:36:21;;;;;;;0.87;0.87;;;17.50;99.90;16.60;101123.00;;;;5034949;28;20207;-73
2022/06/07 07:39:34;;;;;;;0.20;0.20;;;17.10;99.90;17.10;101128.00;;;;5035102;28;20182;-70
2022/06/07 07:42:22;;;;;;;0.33;0.33;;;17.30;99.90;16.40;101122.00;;;;5035284;28;20180;-78
2022/06/07 07:44:56;;;;;;;0.10;0.10;;;17.00;99.90;17.00;101110.00;;;;5035004;28;20179;-74
2022/06/07 07:47:29;;;;;;;16.73;0.67;;;17.10;99.90;16.80;101106.00;;;;5034893;28;20196;-74
2022/06/07 07:50:04;;;;;;;0.30;0.30;;;17.30;99.90;16.70;101122.00;;;;5035260;28;20222;-74
2022/06/07 07:53:02;;;;;;;0.10;0.10;;;17.10;99.90;17.70;101136.00;;;;5030049;28;20654;-71
2022/06/07 07:56:09;;;;;;;0.37;0.37;;;17.50;99.90;16.30;101138.00;;;;5042194;28;20262;-71
2022/06/07 07:59:03;;;;;;;0.57;0.57;;;17.30;99.90;16.50;101135.00;;;;5034783;28;20537;-71
2022/06/07 08:01:39;;;;;;;5.47;1.10;;;17.00;99.90;16.50;101144.00;;;;5036999;28;20689;-71
2022/06/07 08:04:47;;;;;;;0.10;0.10;;;17.10;99.90;16.60;101146.00;;;;5036228;28;20210;-71
2022/06/07 08:08:03;;;;;;;0.20;0.20;;;17.00;99.90;17.10;101151.00;;;;5028301;28;20193;-71
2022/06/07 08:10:38;;;;;;;1.43;0.50;;;17.40;99.90;17.50;101156.00;;;;5024996;28;20179;-71
2022/06/07 08:13:34;;;;;;;0.70;0.70;;;17.50;99.90;16.80;101144.00;;;;5030648;28;20220;-71
2022/06/07 08:16:23;;;;;;;0.33;0.33;;;17.40;99.90;17.30;101130.00;;;;5014671;28;20168;-71
2022/06/07 08:19:22;;;;;;;0.83;0.83;;;17.60;99.90;17.10;101146.00;;;;5024653;28;20582;-71
2022/06/07 08:22:09;;;;;;;0.10;0.10;;;17.50;99.90;17.10;101133.00;;;;5035802;28;20671;-71
2022/06/07 08:25:01;;;;;;;0.10;0.10;;;17.50;99.90;17.80;101144.00;;;;5051013;28;20182;-71
2022/06/07 08:28:05;;;;;;;2.13;2.13;;;17.80;99.90;18.20;101143.00;;;;5034436;28;20192;-71
2022/06/07 08:30:43;;;;;;;1.00;1.00;;;18.20;99.90;17.80;101149.00;;;;5033718;28;20198;-71
2022/06/07 08:39:44;;;;;;;0.10;0.10;;;18.40;99.90;19.40;101152.00;;;;5034050;28;20180;-71
2022/06/07 08:42:30;;;;;;;0.43;0.43;;;19.10;99.90;20.70;101186.00;;;;5033155;28;20171;-71
2022/06/07 08:45:20;;;;;;;0.10;0.10;;;20.10;99.90;20.70;101180.00;;;;5019406;28;20313;-71
2022/06/07 08:48:07;;;;;;;0.52;0.47;;;20.40;99.90;20.20;101182.00;;;;5014176;28;20235;-71
2022/06/07 08:51:14;;;;;;;1.13;1.05;;;20.40;99.90;19.00;101153.00;;;;5021172;28;20199;-72
2022/06/07 08:54:31;;;;;;;1.73;1.15;;;19.80;99.90;19.10;101126.00;;;;5033545;28;20190;-72
2022/06/07 08:57:24;;;;;;;0.90;0.90;;;19.40;99.90;18.50;101075.00;;;;5033406;28;20182;-72
2022/06/07 09:00:29;;;;;;;1.42;0.70;;;19.20;99.90;18.20;101128.00;;;;5032078;28;20638;-71
2022/06/07 09:03:25;;;;;;;0.13;0.13;;;18.90;99.90;19.30;101132.00;;;;5016883;28;20210;-71
2022/06/07 09:06:41;;;;;;;0.63;0.50;;;19.30;99.90;18.60;101122.00;;;;5032994;28;20224;-72
2022/06/07 09:13:27;;;;;;;0.73;0.70;;;19.30;99.90;18.80;101117.00;;;;5033322;28;20294;-72
2022/06/07 09:16:21;;;;;;;0.10;0.10;;;19.70;99.90;19.10;101129.00;;;;5018903;28;20195;-72
2022/06/07 09:19:25;;;;;;;0.68;0.68;;;19.70;99.90;19.00;101120.00;;;;5033423;28;20237;-72
2022/06/07 09:22:41;;;;;;;4.05;1.38;;;19.30;99.90;18.20;101119.00;;;;5034385;28;20186;-73
2022/06/07 09:25:49;;;;;;;0.20;0.20;;;18.90;99.90;18.90;101130.00;;;;5032900;28;20179;-76
2022/06/07 09:28:47;;;;;;;0.10;0.10;;;18.90;99.90;19.10;101114.00;;;;5026517;28;20264;-77
2022/06/07 09:31:21;;;;;;;0.80;0.80;;;19.50;99.90;17.30;101121.00;;;;5044656;28;20214;-77
2022/06/07 09:34:21;;;;;;;0.97;0.90;;;18.60;99.90;17.20;101125.00;;;;5032457;28;20174;-76
2022/06/07 09:37:51;;;;;;;0.10;0.10;;;18.30;99.90;19.10;101121.00;;;;5019169;28;20684;-76
2022/06/07 09:40:47;;;;;;;0.30;0.30;;;18.70;99.90;19.70;101062.00;;;;5042716;28;20188;-76
2022/06/07 09:43:12;;;;;;;0.20;0.20;;;19.70;99.90;19.30;101116.00;;;;5024082;28;20618;-78
2022/06/07 09:45:45;;;;;;;0.35;0.35;;;19.90;99.90;18.90;101117.00;;;;5012738;28;20202;-77
2022/06/07 09:48:37;;;;;;;2.08;0.68;;;19.50;99.90;18.70;101115.00;;;;5012739;28;20187;-77
2022/06/07 09:51:15;;;;;;;0.30;0.30;;;19.20;99.90;19.80;101120.00;;;;5013173;28;20531;-76
2022/06/07 09:53:47;;;;;;;1.65;0.50;;;19.60;99.90;19.20;101111.00;;;;5012847;28;20183;-77
2022/06/07 09:56:38;;;;;;;0.32;0.32;;;19.70;99.90;20.10;101119.00;;;;5033241;28;20534;-76
2022/06/07 09:59:28;;;;;;;0.10;0.10;;;20.10;99.90;20.40;101126.00;;;;5045299;28;20179;-77
2022/06/07 10:02:42;;;;;;;0.32;0.32;;;20.40;99.90;19.20;101116.00;;;;5030014;28;20649;-75
2022/06/07 10:05:27;;;;;;;0.30;0.30;;;19.80;99.90;18.80;101122.00;;;;5033171;28;20229;-75
2022/06/07 10:08:09;;;;;;;0.40;0.40;;;19.30;99.90;18.90;101115.00;;;;5032070;28;20179;-75
2022/06/07 10:10:54;;;;;;;0.15;0.15;;;19.50;99.90;19.30;101115.00;;;;5033094;28;20246;-74
2022/06/07 10:13:35;;;;;;;0.30;0.30;;;19.50;99.90;20.30;101123.00;;;;5031807;28;20201;-73
2022/06/07 10:16:30;;;;;;;0.28;0.28;;;20.20;99.90;20.00;101117.00;;;;5032009;28;20292;-73
2022/06/07 10:19:32;;;;;;;3.83;0.57;;;20.50;99.90;20.50;101120.00;;;;5033387;28;20170;-73
2022/06/07 10:33:51;;;;;;;0.93;0.90;;;18.70;99.90;18.60;101124.00;;;;5067699;27;1318828;-73
2022/06/07 10:37:21;;;;;;;0.85;0.38;;;18.90;99.90;19.50;101122.00;;;;5081703;28;20543;-73
2022/06/07 10:40:11;;;;;;;0.22;0.22;;;19.70;99.90;20.30;101114.00;;;;5067913;28;20204;-73
2022/06/07 10:42:54;;;;;;;0.40;0.40;;;20.40;99.90;21.50;101119.00;;;;5082463;28;20199;-73
2022/06/07 10:45:46;;;;;;;0.38;0.38;;;21.60;99.90;22.10;101081.00;;;;5074058;28;20184;-73
2022/06/07 10:48:29;;;;;;;0.30;0.30;;;21.80;99.90;21.00;101123.00;;;;5088436;28;20218;-73
2022/06/07 10:54:30;;;;;;;0.22;0.22;;;21.00;99.90;21.10;101106.00;;;;5091108;28;20393;-73
2022/06/07 10:57:21;;;;;;;0.20;0.20;;;21.30;99.90;21.70;101113.00;;;;5090198;28;20304;-73
2022/06/07 10:59:51;;;;;;;0.30;0.30;;;21.60;99.90;21.10;101118.00;;;;5090656;28;20195;-73
2022/06/07 11:03:05;;;;;;;0.22;0.22;;;21.60;99.90;19.90;101090.00;;;;5091290;28;20182;-72
2022/06/07 11:11:43;;;;;;;0.20;0.20;;;20.60;99.90;19.30;101102.00;;;;5094703;28;20259;-73
2022/06/07 11:14:22;;;;;;;0.40;0.40;;;20.20;99.90;19.90;101110.00;;;;5092510;28;20162;-73
2022/06/07 11:17:18;;;;;;;0.52;0.50;;;20.10;99.90;18.70;101104.00;;;;5110355;28;20229;-73
2022/06/07 11:19:54;;;;;;;0.63;0.63;;;19.80;99.90;19.20;101101.00;;;;5075312;28;20199;-72
2022/06/07 11:22:37;;;;;;;0.38;0.38;;;19.70;99.90;19.30;101112.00;;;;5091831;28;20183;-72
2022/06/07 11:25:37;;;;;;;0.20;0.20;;;19.60;99.90;20.00;101050.00;;;;5092478;28;20227;-72
2022/06/07 11:28:19;;;;;;;0.20;0.20;;;19.90;99.90;20.00;101100.00;;;;5092718;28;20238;-74
2022/06/07 11:30:52;;;;;;;0.28;0.28;;;20.20;99.90;19.80;101102.00;;;;5074795;28;20180;-73
2022/06/07 11:33:52;;;;;;;0.20;0.20;;;20.20;99.90;18.80;101105.00;;;;5092105;28;20189;-72
2022/06/07 11:36:27;;;;;;;0.50;0.50;;;19.40;99.90;18.70;101104.00;;;;5109970;28;20172;-74
2022/06/07 11:38:58;;;;;;;0.68;0.68;;;19.30;99.90;19.40;101109.00;;;;5075241;28;20195;-72
2022/06/07 11:41:39;;;;;;;0.20;0.20;;;19.50;99.90;20.00;101050.00;;;;5110733;28;20168;-72
2022/06/07 11:44:11;;;;;;;0.10;0.10;;;20.00;99.90;21.40;101113.00;;;;5079889;28;20188;-73
2022/06/07 11:47:00;;;;;;;0.43;0.43;;;20.90;99.90;20.50;101088.00;;;;5068732;28;20212;-73
2022/06/07 11:49:34;;;;;;;0.30;0.30;;;21.10;99.90;20.20;101100.00;;;;5086894;28;20210;-73
2022/06/07 11:52:19;;;;;;;0.22;0.22;;;20.80;99.90;21.00;101093.00;;;;5087197;28;20235;-74
2022/06/07 11:54:45;;;;;;;0.30;0.30;;;20.90;99.90;22.00;101112.00;;;;5094986;28;20176;-73
2022/06/07 11:57:26;;;;;;;0.10;0.10;;;21.70;99.90;20.70;101092.00;;;;5094226;28;20195;-74
2022/06/07 11:59:58;;;;;;;0.57;0.57;;;21.50;99.90;19.90;101081.00;;;;5076857;28;20189;-73
2022/06/07 12:02:28;;;;;;;0.45;0.45;;;20.90;99.90;19.20;101074.00;;;;5076432;28;20670;-73
2022/06/07 12:05:30;;;;;;;0.20;0.20;;;20.00;99.90;19.40;101085.00;;;;5076471;28;20189;-73
2022/06/07 12:08:33;;;;;;;0.20;0.20;;;19.80;99.90;19.80;101096.00;;;;5024544;28;20227;-74
2022/06/07 12:11:21;;;;;;;0.13;0.13;;;20.00;99.90;19.30;101082.00;;;;5077174;28;20627;-73
2022/06/07 12:14:14;;;;;;;1.65;1.65;;;19.90;99.90;19.30;101082.00;;;;5095208;28;20176;-73
2022/06/07 12:17:03;;;;;;;0.13;0.13;;;19.60;99.90;21.00;101096.00;;;;5094408;28;20185;-66
2022/06/07 12:20:17;;;;;;;0.10;0.10;;;20.30;99.90;21.30;101094.00;;;;5044589;28;20201;-75
2022/06/07 12:22:52;;;;;;;0.20;0.20;;;20.90;99.90;20.90;101072.00;;;;5075240;28;20223;-74
2022/06/07 12:25:41;;;;;;;0.15;0.15;;;20.90;99.90;21.30;101095.00;;;;5093953;28;20180;-74
2022/06/07 12:28:24;;;;;;;0.10;0.10;;;21.10;99.90;20.10;101076.00;;;;5076198;28;20177;-74